sensor_id;sensor_type;location;lat;lon;timestamp;P1;durP1;ratioP1;P2;durP2;ratioP2
2039;SDS011;1025;42.686;23.350;2024-03-06T00:02:06;18.40;;;15.60;;
2039;SDS011;1025;42.686;23.350;2024-03-06T00:04:32;19.10;;;15.20;;
2039;SDS011;1025;42.686;23.350;2024-03-06T00:07:00;19.53;;;16.80;;
2039;SDS011;1025;42.686;23.350;2024-03-06T00:09:30;22.87;;;16.27;;
2039;SDS011;1025;42.686;23.350;2024-03-06T00:11:57;23.67;;;18.10;;
2039;SDS011;1025;42.686;23.350;2024-03-06T00:14:23;20.43;;;16.57;;
2039;SDS011;1025;42.686;23.350;2024-03-06T00:16:52;19.20;;;16.40;;
2039;SDS011;1025;42.686;23.350;2024-03-06T00:19:22;18.30;;;15.90;;
2039;SDS011;1025;42.686;23.350;2024-03-06T00:21:49;22.10;;;18.03;;
2039;SDS011;1025;42.686;23.350;2024-03-06T00:24:17;19.30;;;16.47;;
2039;SDS011;1025;42.686;23.350;2024-03-06T00:26:44;18.20;;;16.23;;
2039;SDS011;1025;42.686;23.350;2024-03-06T00:29:12;18.93;;;16.00;;
2039;SDS011;1025;42.686;23.350;2024-03-06T00:31:42;22.63;;;16.90;;
2039;SDS011;1025;42.686;23.350;2024-03-06T00:34:09;23.23;;;16.80;;
2039;SDS011;1025;42.686;23.350;2024-03-06T00:36:37;25.67;;;17.27;;
2039;SDS011;1025;42.686;23.350;2024-03-06T00:39:06;20.67;;;18.43;;
2039;SDS011;1025;42.686;23.350;2024-03-06T00:41:35;22.53;;;18.27;;
2039;SDS011;1025;42.686;23.350;2024-03-06T00:44:02;21.40;;;17.43;;
2039;SDS011;1025;42.686;23.350;2024-03-06T00:46:29;21.63;;;16.23;;
2039;SDS011;1025;42.686;23.350;2024-03-06T00:48:58;22.13;;;16.47;;
2039;SDS011;1025;42.686;23.350;2024-03-06T00:51:24;21.13;;;16.37;;
2039;SDS011;1025;42.686;23.350;2024-03-06T00:53:52;21.27;;;18.07;;
2039;SDS011;1025;42.686;23.350;2024-03-06T00:56:21;22.60;;;17.67;;
2039;SDS011;1025;42.686;23.350;2024-03-06T00:58:50;23.50;;;17.27;;
2039;SDS011;1025;42.686;23.350;2024-03-06T01:01:16;26.13;;;17.73;;
2039;SDS011;1025;42.686;23.350;2024-03-06T01:03:43;21.37;;;17.60;;
2039;SDS011;1025;42.686;23.350;2024-03-06T01:06:12;23.80;;;18.60;;
2039;SDS011;1025;42.686;23.350;2024-03-06T01:08:39;20.43;;;16.27;;
2039;SDS011;1025;42.686;23.350;2024-03-06T01:11:07;21.97;;;18.03;;
2039;SDS011;1025;42.686;23.350;2024-03-06T01:13:36;19.00;;;16.53;;
2039;SDS011;1025;42.686;23.350;2024-03-06T01:16:05;23.87;;;17.90;;
2039;SDS011;1025;42.686;23.350;2024-03-06T01:18:31;22.70;;;16.07;;
2039;SDS011;1025;42.686;23.350;2024-03-06T01:20:59;21.40;;;18.00;;
2039;SDS011;1025;42.686;23.350;2024-03-06T01:23:28;20.53;;;17.50;;
2039;SDS011;1025;42.686;23.350;2024-03-06T01:25:54;21.50;;;17.40;;
2039;SDS011;1025;42.686;23.350;2024-03-06T01:28:23;20.27;;;17.67;;
2039;SDS011;1025;42.686;23.350;2024-03-06T01:30:52;20.67;;;16.80;;
2039;SDS011;1025;42.686;23.350;2024-03-06T01:33:21;19.83;;;15.80;;
2039;SDS011;1025;42.686;23.350;2024-03-06T01:35:48;18.37;;;16.33;;
2039;SDS011;1025;42.686;23.350;2024-03-06T01:38:14;24.33;;;18.10;;
2039;SDS011;1025;42.686;23.350;2024-03-06T01:40:43;22.40;;;18.93;;
2039;SDS011;1025;42.686;23.350;2024-03-06T01:43:17;23.73;;;18.07;;
2039;SDS011;1025;42.686;23.350;2024-03-06T01:45:47;23.90;;;17.30;;
2039;SDS011;1025;42.686;23.350;2024-03-06T01:48:14;20.70;;;17.13;;
2039;SDS011;1025;42.686;23.350;2024-03-06T01:50:40;25.83;;;16.87;;
2039;SDS011;1025;42.686;23.350;2024-03-06T01:53:09;25.40;;;17.50;;
2039;SDS011;1025;42.686;23.350;2024-03-06T01:55:36;24.10;;;17.67;;
2039;SDS011;1025;42.686;23.350;2024-03-06T01:58:03;22.67;;;18.87;;
2039;SDS011;1025;42.686;23.350;2024-03-06T02:00:31;20.73;;;16.00;;
2039;SDS011;1025;42.686;23.350;2024-03-06T02:03:00;24.90;;;17.73;;
2039;SDS011;1025;42.686;23.350;2024-03-06T02:05:30;22.50;;;16.80;;
2039;SDS011;1025;42.686;23.350;2024-03-06T02:07:58;21.07;;;16.73;;
2039;SDS011;1025;42.686;23.350;2024-03-06T02:10:25;24.70;;;17.90;;
2039;SDS011;1025;42.686;23.350;2024-03-06T02:12:54;25.53;;;18.27;;
2039;SDS011;1025;42.686;23.350;2024-03-06T02:15:22;25.97;;;18.40;;
2039;SDS011;1025;42.686;23.350;2024-03-06T02:17:48;25.37;;;18.87;;
2039;SDS011;1025;42.686;23.350;2024-03-06T02:22:52;26.13;;;20.83;;
2039;SDS011;1025;42.686;23.350;2024-03-06T02:25:19;25.60;;;19.93;;
2039;SDS011;1025;42.686;23.350;2024-03-06T02:27:45;24.33;;;20.03;;
2039;SDS011;1025;42.686;23.350;2024-03-06T02:30:13;32.63;;;20.50;;
2039;SDS011;1025;42.686;23.350;2024-03-06T02:32:42;28.13;;;20.43;;
2039;SDS011;1025;42.686;23.350;2024-03-06T02:35:09;25.37;;;19.07;;
2039;SDS011;1025;42.686;23.350;2024-03-06T02:37:37;26.23;;;20.20;;
2039;SDS011;1025;42.686;23.350;2024-03-06T02:40:06;23.50;;;19.37;;
2039;SDS011;1025;42.686;23.350;2024-03-06T02:42:35;24.80;;;18.50;;
2039;SDS011;1025;42.686;23.350;2024-03-06T02:45:06;29.83;;;20.80;;
2039;SDS011;1025;42.686;23.350;2024-03-06T02:47:33;27.80;;;20.63;;
2039;SDS011;1025;42.686;23.350;2024-03-06T02:50:03;24.67;;;17.30;;
2039;SDS011;1025;42.686;23.350;2024-03-06T02:52:32;23.13;;;17.17;;
2039;SDS011;1025;42.686;23.350;2024-03-06T02:54:58;25.67;;;17.87;;
2039;SDS011;1025;42.686;23.350;2024-03-06T02:57:27;25.90;;;18.70;;
2039;SDS011;1025;42.686;23.350;2024-03-06T02:59:58;24.93;;;19.10;;
2039;SDS011;1025;42.686;23.350;2024-03-06T03:02:31;27.67;;;20.50;;
2039;SDS011;1025;42.686;23.350;2024-03-06T03:04:57;25.37;;;19.20;;
2039;SDS011;1025;42.686;23.350;2024-03-06T03:07:26;25.07;;;19.03;;
2039;SDS011;1025;42.686;23.350;2024-03-06T03:09:55;26.43;;;19.70;;
2039;SDS011;1025;42.686;23.350;2024-03-06T03:12:21;21.63;;;17.30;;
2039;SDS011;1025;42.686;23.350;2024-03-06T03:14:49;24.20;;;18.13;;
2039;SDS011;1025;42.686;23.350;2024-03-06T03:17:18;23.70;;;18.50;;
2039;SDS011;1025;42.686;23.350;2024-03-06T03:19:45;23.33;;;19.33;;
2039;SDS011;1025;42.686;23.350;2024-03-06T03:22:11;24.33;;;19.57;;
2039;SDS011;1025;42.686;23.350;2024-03-06T03:24:40;33.20;;;22.50;;
2039;SDS011;1025;42.686;23.350;2024-03-06T03:27:07;28.40;;;19.43;;
2039;SDS011;1025;42.686;23.350;2024-03-06T03:29:34;24.40;;;19.93;;
2039;SDS011;1025;42.686;23.350;2024-03-06T03:32:03;26.37;;;21.33;;
2039;SDS011;1025;42.686;23.350;2024-03-06T03:34:32;23.80;;;18.23;;
2039;SDS011;1025;42.686;23.350;2024-03-06T03:36:59;29.43;;;19.90;;
2039;SDS011;1025;42.686;23.350;2024-03-06T03:39:27;22.10;;;18.37;;
2039;SDS011;1025;42.686;23.350;2024-03-06T03:41:54;29.77;;;19.43;;
2039;SDS011;1025;42.686;23.350;2024-03-06T03:44:20;36.00;;;21.17;;
2039;SDS011;1025;42.686;23.350;2024-03-06T03:46:49;31.43;;;20.97;;
2039;SDS011;1025;42.686;23.350;2024-03-06T03:49:17;24.67;;;18.97;;
2039;SDS011;1025;42.686;23.350;2024-03-06T03:51:44;25.67;;;18.23;;
2039;SDS011;1025;42.686;23.350;2024-03-06T03:54:12;32.87;;;20.03;;
2039;SDS011;1025;42.686;23.350;2024-03-06T03:56:39;26.80;;;18.60;;
2039;SDS011;1025;42.686;23.350;2024-03-06T03:59:05;29.20;;;18.50;;
2039;SDS011;1025;42.686;23.350;2024-03-06T04:01:34;28.13;;;19.80;;
2039;SDS011;1025;42.686;23.350;2024-03-06T04:04:01;25.50;;;20.20;;
2039;SDS011;1025;42.686;23.350;2024-03-06T04:06:29;25.40;;;19.93;;
2039;SDS011;1025;42.686;23.350;2024-03-06T04:08:55;31.83;;;22.20;;
2039;SDS011;1025;42.686;23.350;2024-03-06T04:11:24;25.30;;;20.40;;
2039;SDS011;1025;42.686;23.350;2024-03-06T04:13:51;31.57;;;21.20;;
2039;SDS011;1025;42.686;23.350;2024-03-06T04:16:18;30.13;;;22.03;;
2039;SDS011;1025;42.686;23.350;2024-03-06T04:18:45;23.83;;;18.97;;
2039;SDS011;1025;42.686;23.350;2024-03-06T04:21:11;36.03;;;22.33;;
2039;SDS011;1025;42.686;23.350;2024-03-06T04:23:43;36.37;;;22.47;;
2039;SDS011;1025;42.686;23.350;2024-03-06T04:26:10;30.43;;;20.90;;
2039;SDS011;1025;42.686;23.350;2024-03-06T04:28:40;32.57;;;19.70;;
2039;SDS011;1025;42.686;23.350;2024-03-06T04:31:06;32.60;;;22.67;;
2039;SDS011;1025;42.686;23.350;2024-03-06T04:33:34;29.90;;;22.57;;
2039;SDS011;1025;42.686;23.350;2024-03-06T04:36:01;36.83;;;22.20;;
2039;SDS011;1025;42.686;23.350;2024-03-06T04:38:27;36.70;;;22.40;;
2039;SDS011;1025;42.686;23.350;2024-03-06T04:40:56;32.30;;;22.57;;
2039;SDS011;1025;42.686;23.350;2024-03-06T04:43:22;30.90;;;21.60;;
2039;SDS011;1025;42.686;23.350;2024-03-06T04:45:52;27.50;;;21.63;;
2039;SDS011;1025;42.686;23.350;2024-03-06T04:48:18;29.00;;;20.17;;
2039;SDS011;1025;42.686;23.350;2024-03-06T04:50:45;32.53;;;20.13;;
2039;SDS011;1025;42.686;23.350;2024-03-06T04:53:12;29.10;;;19.77;;
2039;SDS011;1025;42.686;23.350;2024-03-06T04:55:41;35.20;;;20.33;;
2039;SDS011;1025;42.686;23.350;2024-03-06T04:58:09;30.60;;;21.87;;
2039;SDS011;1025;42.686;23.350;2024-03-06T05:00:36;33.40;;;19.87;;
2039;SDS011;1025;42.686;23.350;2024-03-06T05:03:04;35.73;;;22.87;;
2039;SDS011;1025;42.686;23.350;2024-03-06T05:05:31;34.13;;;23.10;;
2039;SDS011;1025;42.686;23.350;2024-03-06T05:07:58;31.47;;;21.87;;
2039;SDS011;1025;42.686;23.350;2024-03-06T05:10:26;28.60;;;20.93;;
2039;SDS011;1025;42.686;23.350;2024-03-06T05:12:53;38.63;;;23.87;;
2039;SDS011;1025;42.686;23.350;2024-03-06T05:15:22;33.03;;;24.00;;
2039;SDS011;1025;42.686;23.350;2024-03-06T05:17:51;41.40;;;22.67;;
2039;SDS011;1025;42.686;23.350;2024-03-06T05:20:17;29.87;;;22.63;;
2039;SDS011;1025;42.686;23.350;2024-03-06T05:22:44;43.30;;;24.73;;
2039;SDS011;1025;42.686;23.350;2024-03-06T05:25:12;36.53;;;22.57;;
2039;SDS011;1025;42.686;23.350;2024-03-06T05:27:41;40.40;;;22.07;;
2039;SDS011;1025;42.686;23.350;2024-03-06T05:30:11;36.63;;;23.10;;
2039;SDS011;1025;42.686;23.350;2024-03-06T05:32:41;29.93;;;18.93;;
2039;SDS011;1025;42.686;23.350;2024-03-06T05:35:08;25.17;;;18.50;;
2039;SDS011;1025;42.686;23.350;2024-03-06T05:37:37;30.47;;;19.63;;
2039;SDS011;1025;42.686;23.350;2024-03-06T05:40:03;28.03;;;18.70;;
2039;SDS011;1025;42.686;23.350;2024-03-06T05:42:33;24.90;;;17.77;;
2039;SDS011;1025;42.686;23.350;2024-03-06T05:44:59;40.30;;;21.57;;
2039;SDS011;1025;42.686;23.350;2024-03-06T05:47:30;30.40;;;20.20;;
2039;SDS011;1025;42.686;23.350;2024-03-06T05:50:00;30.80;;;21.40;;
2039;SDS011;1025;42.686;23.350;2024-03-06T05:52:29;26.13;;;19.90;;
2039;SDS011;1025;42.686;23.350;2024-03-06T05:54:56;26.40;;;18.70;;
2039;SDS011;1025;42.686;23.350;2024-03-06T05:57:25;23.87;;;20.67;;
2039;SDS011;1025;42.686;23.350;2024-03-06T05:59:51;17.83;;;15.97;;
2039;SDS011;1025;42.686;23.350;2024-03-06T06:02:18;23.50;;;16.60;;
2039;SDS011;1025;42.686;23.350;2024-03-06T06:04:45;25.93;;;17.40;;
2039;SDS011;1025;42.686;23.350;2024-03-06T06:07:15;21.10;;;15.90;;
2039;SDS011;1025;42.686;23.350;2024-03-06T06:09:42;29.00;;;17.80;;
2039;SDS011;1025;42.686;23.350;2024-03-06T06:12:08;20.00;;;16.50;;
2039;SDS011;1025;42.686;23.350;2024-03-06T06:14:37;26.83;;;17.83;;
2039;SDS011;1025;42.686;23.350;2024-03-06T06:17:04;28.03;;;20.00;;
2039;SDS011;1025;42.686;23.350;2024-03-06T06:19:30;22.10;;;15.90;;
2039;SDS011;1025;42.686;23.350;2024-03-06T06:22:02;26.03;;;17.57;;
2039;SDS011;1025;42.686;23.350;2024-03-06T06:24:30;24.10;;;18.53;;
2039;SDS011;1025;42.686;23.350;2024-03-06T06:26:57;25.93;;;17.43;;
2039;SDS011;1025;42.686;23.350;2024-03-06T06:29:25;25.33;;;19.83;;
2039;SDS011;1025;42.686;23.350;2024-03-06T06:31:52;26.60;;;18.20;;
2039;SDS011;1025;42.686;23.350;2024-03-06T06:34:21;29.23;;;22.60;;
2039;SDS011;1025;42.686;23.350;2024-03-06T06:36:47;27.73;;;23.93;;
2039;SDS011;1025;42.686;23.350;2024-03-06T06:39:17;34.83;;;23.20;;
2039;SDS011;1025;42.686;23.350;2024-03-06T06:41:47;39.13;;;21.93;;
2039;SDS011;1025;42.686;23.350;2024-03-06T06:44:16;27.57;;;20.93;;
2039;SDS011;1025;42.686;23.350;2024-03-06T06:46:42;30.63;;;20.50;;
2039;SDS011;1025;42.686;23.350;2024-03-06T06:49:09;32.53;;;20.30;;
2039;SDS011;1025;42.686;23.350;2024-03-06T06:51:40;24.20;;;17.40;;
2039;SDS011;1025;42.686;23.350;2024-03-06T06:54:07;34.17;;;21.47;;
2039;SDS011;1025;42.686;23.350;2024-03-06T06:56:34;54.87;;;20.50;;
2039;SDS011;1025;42.686;23.350;2024-03-06T06:59:03;27.47;;;19.37;;
2039;SDS011;1025;42.686;23.350;2024-03-06T07:01:30;24.00;;;17.23;;
2039;SDS011;1025;42.686;23.350;2024-03-06T07:03:58;27.47;;;16.60;;
2039;SDS011;1025;42.686;23.350;2024-03-06T07:06:26;21.47;;;17.50;;
2039;SDS011;1025;42.686;23.350;2024-03-06T07:08:53;26.30;;;20.80;;
2039;SDS011;1025;42.686;23.350;2024-03-06T07:11:19;29.67;;;20.70;;
2039;SDS011;1025;42.686;23.350;2024-03-06T07:16:29;30.13;;;21.43;;
2039;SDS011;1025;42.686;23.350;2024-03-06T07:19:09;34.43;;;19.07;;
2039;SDS011;1025;42.686;23.350;2024-03-06T07:21:38;23.90;;;21.33;;
2039;SDS011;1025;42.686;23.350;2024-03-06T07:24:09;30.70;;;21.93;;
2039;SDS011;1025;42.686;23.350;2024-03-06T07:26:37;30.70;;;20.90;;
2039;SDS011;1025;42.686;23.350;2024-03-06T07:29:04;26.70;;;22.80;;
2039;SDS011;1025;42.686;23.350;2024-03-06T07:31:41;30.83;;;21.27;;
2039;SDS011;1025;42.686;23.350;2024-03-06T07:34:09;28.30;;;20.63;;
2039;SDS011;1025;42.686;23.350;2024-03-06T07:36:38;33.17;;;24.03;;
2039;SDS011;1025;42.686;23.350;2024-03-06T07:39:08;44.33;;;26.67;;
2039;SDS011;1025;42.686;23.350;2024-03-06T07:41:40;27.10;;;20.83;;
2039;SDS011;1025;42.686;23.350;2024-03-06T07:44:08;54.30;;;25.70;;
2039;SDS011;1025;42.686;23.350;2024-03-06T07:46:37;37.13;;;20.63;;
2039;SDS011;1025;42.686;23.350;2024-03-06T07:49:05;25.57;;;21.13;;
2039;SDS011;1025;42.686;23.350;2024-03-06T07:51:32;27.40;;;21.53;;
2039;SDS011;1025;42.686;23.350;2024-03-06T07:54:04;26.43;;;21.20;;
2039;SDS011;1025;42.686;23.350;2024-03-06T07:56:33;24.80;;;19.70;;
2039;SDS011;1025;42.686;23.350;2024-03-06T07:59:04;27.87;;;21.50;;
2039;SDS011;1025;42.686;23.350;2024-03-06T08:01:31;24.83;;;21.53;;
2039;SDS011;1025;42.686;23.350;2024-03-06T08:04:05;23.60;;;21.17;;
2039;SDS011;1025;42.686;23.350;2024-03-06T08:06:37;34.93;;;21.80;;
2039;SDS011;1025;42.686;23.350;2024-03-06T08:09:10;21.07;;;18.03;;
2039;SDS011;1025;42.686;23.350;2024-03-06T08:11:39;25.97;;;21.50;;
2039;SDS011;1025;42.686;23.350;2024-03-06T08:14:07;24.00;;;19.17;;
2039;SDS011;1025;42.686;23.350;2024-03-06T08:16:41;25.50;;;19.30;;
2039;SDS011;1025;42.686;23.350;2024-03-06T08:19:08;25.77;;;19.37;;
2039;SDS011;1025;42.686;23.350;2024-03-06T08:21:39;22.53;;;18.30;;
2039;SDS011;1025;42.686;23.350;2024-03-06T08:24:07;21.93;;;18.80;;
2039;SDS011;1025;42.686;23.350;2024-03-06T08:26:34;33.63;;;21.30;;
2039;SDS011;1025;42.686;23.350;2024-03-06T08:29:03;22.33;;;19.20;;
2039;SDS011;1025;42.686;23.350;2024-03-06T08:31:38;25.40;;;19.50;;
2039;SDS011;1025;42.686;23.350;2024-03-06T08:34:06;25.43;;;18.53;;
2039;SDS011;1025;42.686;23.350;2024-03-06T08:36:38;28.90;;;21.57;;
2039;SDS011;1025;42.686;23.350;2024-03-06T08:39:08;22.60;;;17.40;;
2039;SDS011;1025;42.686;23.350;2024-03-06T08:41:40;22.63;;;17.07;;
2039;SDS011;1025;42.686;23.350;2024-03-06T08:44:13;22.30;;;18.83;;
2039;SDS011;1025;42.686;23.350;2024-03-06T08:46:43;29.80;;;19.03;;
2039;SDS011;1025;42.686;23.350;2024-03-06T08:49:09;28.47;;;18.83;;
2039;SDS011;1025;42.686;23.350;2024-03-06T08:51:47;19.97;;;17.83;;
2039;SDS011;1025;42.686;23.350;2024-03-06T08:54:19;24.50;;;19.00;;
2039;SDS011;1025;42.686;23.350;2024-03-06T08:57:11;21.43;;;18.40;;
2039;SDS011;1025;42.686;23.350;2024-03-06T08:59:37;24.80;;;16.67;;
2039;SDS011;1025;42.686;23.350;2024-03-06T09:02:13;23.47;;;18.20;;
2039;SDS011;1025;42.686;23.350;2024-03-06T09:07:34;24.67;;;14.57;;
2039;SDS011;1025;42.686;23.350;2024-03-06T09:10:05;18.30;;;13.67;;
2039;SDS011;1025;42.686;23.350;2024-03-06T09:12:32;21.27;;;15.20;;
2039;SDS011;1025;42.686;23.350;2024-03-06T09:15:00;19.93;;;14.73;;
2039;SDS011;1025;42.686;23.350;2024-03-06T09:17:27;26.10;;;16.70;;
2039;SDS011;1025;42.686;23.350;2024-03-06T09:19:54;26.77;;;16.87;;
2039;SDS011;1025;42.686;23.350;2024-03-06T09:22:23;20.20;;;15.43;;
2039;SDS011;1025;42.686;23.350;2024-03-06T09:24:50;21.30;;;16.13;;
2039;SDS011;1025;42.686;23.350;2024-03-06T09:27:18;21.03;;;15.20;;
2039;SDS011;1025;42.686;23.350;2024-03-06T09:29:46;26.83;;;18.93;;
2039;SDS011;1025;42.686;23.350;2024-03-06T09:32:15;26.10;;;16.70;;
2039;SDS011;1025;42.686;23.350;2024-03-06T09:34:42;17.73;;;13.60;;
2039;SDS011;1025;42.686;23.350;2024-03-06T09:37:09;17.30;;;13.43;;
2039;SDS011;1025;42.686;23.350;2024-03-06T09:39:38;36.30;;;13.80;;
2039;SDS011;1025;42.686;23.350;2024-03-06T09:42:05;15.43;;;12.87;;
2039;SDS011;1025;42.686;23.350;2024-03-06T09:44:33;15.03;;;11.40;;
2039;SDS011;1025;42.686;23.350;2024-03-06T09:47:02;13.13;;;11.00;;
2039;SDS011;1025;42.686;23.350;2024-03-06T09:49:31;13.40;;;10.80;;
2039;SDS011;1025;42.686;23.350;2024-03-06T09:51:59;15.60;;;12.57;;
2039;SDS011;1025;42.686;23.350;2024-03-06T09:54:25;21.00;;;11.57;;
2039;SDS011;1025;42.686;23.350;2024-03-06T09:56:54;15.37;;;12.43;;
2039;SDS011;1025;42.686;23.350;2024-03-06T09:59:22;17.40;;;11.17;;
2039;SDS011;1025;42.686;23.350;2024-03-06T10:01:53;16.53;;;12.70;;
2039;SDS011;1025;42.686;23.350;2024-03-06T10:04:22;14.93;;;11.60;;
2039;SDS011;1025;42.686;23.350;2024-03-06T10:06:51;12.03;;;10.93;;
2039;SDS011;1025;42.686;23.350;2024-03-06T10:09:20;14.97;;;11.53;;
2039;SDS011;1025;42.686;23.350;2024-03-06T10:11:46;16.90;;;12.17;;
2039;SDS011;1025;42.686;23.350;2024-03-06T10:14:14;14.73;;;9.87;;
2039;SDS011;1025;42.686;23.350;2024-03-06T10:16:53;12.27;;;10.97;;
2039;SDS011;1025;42.686;23.350;2024-03-06T10:19:23;13.70;;;10.17;;
2039;SDS011;1025;42.686;23.350;2024-03-06T10:21:52;14.00;;;11.50;;
2039;SDS011;1025;42.686;23.350;2024-03-06T10:24:19;15.97;;;9.43;;
2039;SDS011;1025;42.686;23.350;2024-03-06T10:26:45;8.30;;;7.50;;
2039;SDS011;1025;42.686;23.350;2024-03-06T10:29:14;10.17;;;8.00;;
2039;SDS011;1025;42.686;23.350;2024-03-06T10:31:41;8.97;;;7.90;;
2039;SDS011;1025;42.686;23.350;2024-03-06T10:34:10;11.73;;;6.57;;
2039;SDS011;1025;42.686;23.350;2024-03-06T10:36:39;13.07;;;7.33;;
2039;SDS011;1025;42.686;23.350;2024-03-06T10:39:06;13.80;;;9.47;;
2039;SDS011;1025;42.686;23.350;2024-03-06T10:41:33;12.00;;;8.43;;
2039;SDS011;1025;42.686;23.350;2024-03-06T10:44:04;10.03;;;8.30;;
2039;SDS011;1025;42.686;23.350;2024-03-06T10:46:30;19.00;;;9.77;;
2039;SDS011;1025;42.686;23.350;2024-03-06T10:48:59;13.53;;;8.70;;
2039;SDS011;1025;42.686;23.350;2024-03-06T10:51:30;20.97;;;17.97;;
2039;SDS011;1025;42.686;23.350;2024-03-06T10:53:58;14.57;;;8.60;;
2039;SDS011;1025;42.686;23.350;2024-03-06T10:56:25;11.40;;;7.77;;
2039;SDS011;1025;42.686;23.350;2024-03-06T10:58:53;10.57;;;8.03;;
2039;SDS011;1025;42.686;23.350;2024-03-06T11:01:21;12.53;;;7.27;;
2039;SDS011;1025;42.686;23.350;2024-03-06T11:03:52;9.77;;;8.77;;
2039;SDS011;1025;42.686;23.350;2024-03-06T11:06:21;8.90;;;6.93;;
2039;SDS011;1025;42.686;23.350;2024-03-06T11:08:50;8.40;;;6.60;;
2039;SDS011;1025;42.686;23.350;2024-03-06T11:11:20;18.97;;;9.13;;
2039;SDS011;1025;42.686;23.350;2024-03-06T11:13:47;24.27;;;10.07;;
2039;SDS011;1025;42.686;23.350;2024-03-06T11:16:15;15.13;;;9.13;;
2039;SDS011;1025;42.686;23.350;2024-03-06T11:18:45;26.90;;;10.20;;
2039;SDS011;1025;42.686;23.350;2024-03-06T11:21:29;10.20;;;8.60;;
2039;SDS011;1025;42.686;23.350;2024-03-06T11:24:15;28.40;;;10.60;;
2039;SDS011;1025;42.686;23.350;2024-03-06T11:26:43;16.97;;;7.90;;
2039;SDS011;1025;42.686;23.350;2024-03-06T11:29:08;8.27;;;6.83;;
2039;SDS011;1025;42.686;23.350;2024-03-06T11:31:37;8.20;;;6.87;;
2039;SDS011;1025;42.686;23.350;2024-03-06T11:34:04;15.40;;;5.97;;
2039;SDS011;1025;42.686;23.350;2024-03-06T11:36:30;10.27;;;6.93;;
2039;SDS011;1025;42.686;23.350;2024-03-06T11:41:50;7.53;;;6.80;;
2039;SDS011;1025;42.686;23.350;2024-03-06T11:44:17;7.70;;;6.90;;
2039;SDS011;1025;42.686;23.350;2024-03-06T12:05:09;11.43;;;8.27;;
2039;SDS011;1025;42.686;23.350;2024-03-06T12:07:44;7.13;;;6.37;;
2039;SDS011;1025;42.686;23.350;2024-03-06T12:10:10;10.30;;;7.53;;
2039;SDS011;1025;42.686;23.350;2024-03-06T12:12:37;11.67;;;7.80;;
2039;SDS011;1025;42.686;23.350;2024-03-06T12:15:04;9.73;;;7.67;;
2039;SDS011;1025;42.686;23.350;2024-03-06T12:17:31;11.87;;;6.70;;
2039;SDS011;1025;42.686;23.350;2024-03-06T12:19:58;7.97;;;6.40;;
2039;SDS011;1025;42.686;23.350;2024-03-06T12:22:28;7.13;;;6.00;;
2039;SDS011;1025;42.686;23.350;2024-03-06T12:24:58;9.83;;;7.13;;
2039;SDS011;1025;42.686;23.350;2024-03-06T12:27:25;7.47;;;6.67;;
2039;SDS011;1025;42.686;23.350;2024-03-06T12:29:52;8.00;;;6.17;;
2039;SDS011;1025;42.686;23.350;2024-03-06T12:32:20;11.90;;;6.60;;
2039;SDS011;1025;42.686;23.350;2024-03-06T12:34:58;10.43;;;7.70;;
2039;SDS011;1025;42.686;23.350;2024-03-06T12:37:29;9.50;;;6.70;;
2039;SDS011;1025;42.686;23.350;2024-03-06T12:39:57;5.87;;;5.33;;
2039;SDS011;1025;42.686;23.350;2024-03-06T12:42:24;8.03;;;6.80;;
2039;SDS011;1025;42.686;23.350;2024-03-06T12:44:53;10.10;;;8.00;;
2039;SDS011;1025;42.686;23.350;2024-03-06T12:47:19;5.73;;;5.23;;
2039;SDS011;1025;42.686;23.350;2024-03-06T12:49:46;8.13;;;7.20;;
2039;SDS011;1025;42.686;23.350;2024-03-06T12:52:13;11.87;;;7.70;;
2039;SDS011;1025;42.686;23.350;2024-03-06T12:54:41;10.03;;;7.17;;
2039;SDS011;1025;42.686;23.350;2024-03-06T12:57:07;8.60;;;5.93;;
2039;SDS011;1025;42.686;23.350;2024-03-06T12:59:36;8.20;;;6.27;;
2039;SDS011;1025;42.686;23.350;2024-03-06T13:02:03;6.90;;;6.20;;
2039;SDS011;1025;42.686;23.350;2024-03-06T13:04:30;9.10;;;6.30;;
2039;SDS011;1025;42.686;23.350;2024-03-06T13:06:57;8.00;;;7.30;;
2039;SDS011;1025;42.686;23.350;2024-03-06T13:09:23;9.17;;;5.70;;
2039;SDS011;1025;42.686;23.350;2024-03-06T13:11:53;6.83;;;5.07;;
2039;SDS011;1025;42.686;23.350;2024-03-06T13:14:20;5.97;;;5.37;;
2039;SDS011;1025;42.686;23.350;2024-03-06T13:16:47;5.80;;;5.30;;
2039;SDS011;1025;42.686;23.350;2024-03-06T13:19:15;6.97;;;5.20;;
2039;SDS011;1025;42.686;23.350;2024-03-06T13:21:42;6.47;;;4.53;;
2039;SDS011;1025;42.686;23.350;2024-03-06T13:24:08;4.90;;;4.30;;
2039;SDS011;1025;42.686;23.350;2024-03-06T13:26:36;7.57;;;4.20;;
2039;SDS011;1025;42.686;23.350;2024-03-06T13:29:06;5.53;;;4.50;;
2039;SDS011;1025;42.686;23.350;2024-03-06T13:31:33;6.50;;;5.10;;
2039;SDS011;1025;42.686;23.350;2024-03-06T13:34:02;4.90;;;4.40;;
2039;SDS011;1025;42.686;23.350;2024-03-06T13:36:31;8.50;;;5.70;;
2039;SDS011;1025;42.686;23.350;2024-03-06T13:38:58;5.40;;;4.43;;
2039;SDS011;1025;42.686;23.350;2024-03-06T13:41:24;4.93;;;4.43;;
2039;SDS011;1025;42.686;23.350;2024-03-06T13:43:53;6.63;;;5.53;;
2039;SDS011;1025;42.686;23.350;2024-03-06T13:46:21;5.50;;;4.77;;
2039;SDS011;1025;42.686;23.350;2024-03-06T13:48:47;6.27;;;4.47;;
2039;SDS011;1025;42.686;23.350;2024-03-06T13:51:16;6.37;;;5.77;;
2039;SDS011;1025;42.686;23.350;2024-03-06T13:53:43;6.07;;;5.50;;
2039;SDS011;1025;42.686;23.350;2024-03-06T13:56:09;10.20;;;6.10;;
2039;SDS011;1025;42.686;23.350;2024-03-06T13:58:35;8.27;;;5.20;;
2039;SDS011;1025;42.686;23.350;2024-03-06T14:01:03;14.37;;;5.77;;
2039;SDS011;1025;42.686;23.350;2024-03-06T14:03:32;5.67;;;5.13;;
2039;SDS011;1025;42.686;23.350;2024-03-06T14:06:02;8.50;;;5.87;;
2039;SDS011;1025;42.686;23.350;2024-03-06T14:08:31;5.03;;;4.40;;
2039;SDS011;1025;42.686;23.350;2024-03-06T14:10:58;5.43;;;4.60;;
2039;SDS011;1025;42.686;23.350;2024-03-06T14:13:24;6.20;;;4.80;;
2039;SDS011;1025;42.686;23.350;2024-03-06T14:15:53;16.30;;;6.30;;
2039;SDS011;1025;42.686;23.350;2024-03-06T14:18:20;8.97;;;5.30;;
2039;SDS011;1025;42.686;23.350;2024-03-06T14:20:48;10.67;;;6.00;;
2039;SDS011;1025;42.686;23.350;2024-03-06T14:23:14;7.50;;;5.90;;
2039;SDS011;1025;42.686;23.350;2024-03-06T14:25:42;8.60;;;5.13;;
2039;SDS011;1025;42.686;23.350;2024-03-06T14:28:09;8.77;;;5.77;;
2039;SDS011;1025;42.686;23.350;2024-03-06T14:30:36;7.40;;;5.67;;
2039;SDS011;1025;42.686;23.350;2024-03-06T14:33:04;9.47;;;6.57;;
2039;SDS011;1025;42.686;23.350;2024-03-06T14:35:30;9.23;;;5.03;;
2039;SDS011;1025;42.686;23.350;2024-03-06T14:37:58;8.10;;;6.10;;
2039;SDS011;1025;42.686;23.350;2024-03-06T14:40:27;9.33;;;6.50;;
2039;SDS011;1025;42.686;23.350;2024-03-06T14:42:54;11.53;;;7.07;;
2039;SDS011;1025;42.686;23.350;2024-03-06T14:45:20;11.73;;;6.70;;
2039;SDS011;1025;42.686;23.350;2024-03-06T14:47:49;9.17;;;8.27;;
2039;SDS011;1025;42.686;23.350;2024-03-06T14:50:15;8.53;;;7.00;;
2039;SDS011;1025;42.686;23.350;2024-03-06T14:52:42;10.07;;;7.50;;
2039;SDS011;1025;42.686;23.350;2024-03-06T14:55:10;11.43;;;6.70;;
2039;SDS011;1025;42.686;23.350;2024-03-06T14:57:37;7.10;;;6.40;;
2039;SDS011;1025;42.686;23.350;2024-03-06T15:00:04;13.63;;;7.30;;
2039;SDS011;1025;42.686;23.350;2024-03-06T15:02:32;10.60;;;7.43;;
2039;SDS011;1025;42.686;23.350;2024-03-06T15:04:58;6.93;;;6.20;;
2039;SDS011;1025;42.686;23.350;2024-03-06T15:07:27;9.13;;;8.20;;
2039;SDS011;1025;42.686;23.350;2024-03-06T15:09:53;8.53;;;7.53;;
2039;SDS011;1025;42.686;23.350;2024-03-06T15:12:24;12.50;;;7.23;;
2039;SDS011;1025;42.686;23.350;2024-03-06T15:14:52;9.00;;;7.70;;
2039;SDS011;1025;42.686;23.350;2024-03-06T15:17:21;10.30;;;8.10;;